createdAt,value
2019-05-22T00:00:31.272Z,13.40
2019-05-22T00:03:10.467Z,13.40
2019-05-22T00:05:40.746Z,13.40
2019-05-22T00:08:10.451Z,13.40
2019-05-22T00:10:44.500Z,13.40
2019-05-22T00:13:14.699Z,13.40
2019-05-22T00:15:46.382Z,13.30
2019-05-22T00:18:16.220Z,13.30
2019-05-22T00:20:45.536Z,13.30
2019-05-22T00:23:15.546Z,13.30
2019-05-22T00:25:45.214Z,13.40
2019-05-22T00:28:14.913Z,13.40
2019-05-22T00:30:45.487Z,13.40
2019-05-22T00:33:15.997Z,13.40
2019-05-22T00:35:45.446Z,13.40
2019-05-22T00:38:15.219Z,13.40
2019-05-22T00:40:45.803Z,13.40
2019-05-22T00:43:17.740Z,13.40
2019-05-22T00:45:49.121Z,13.30
2019-05-22T00:48:21.667Z,13.30
2019-05-22T00:51:00.691Z,13.30
2019-05-22T00:53:51.388Z,13.30
2019-05-22T00:56:29.831Z,13.30
2019-05-22T00:59:06.106Z,13.30
2019-05-22T01:01:48.578Z,13.40
2019-05-22T01:04:22.863Z,13.40
2019-05-22T01:06:54.013Z,13.40
2019-05-22T01:09:39.125Z,13.40
2019-05-22T01:12:12.411Z,13.40
2019-05-22T01:14:43.106Z,13.40
2019-05-22T01:17:14.582Z,13.40
2019-05-22T01:19:45.110Z,13.40
2019-05-22T01:22:15.120Z,13.40
2019-05-22T01:24:45.226Z,13.40
2019-05-22T01:27:15.975Z,13.40
2019-05-22T01:29:46.911Z,13.40
2019-05-22T01:32:26.860Z,13.40
2019-05-22T01:34:56.067Z,13.40
2019-05-22T01:37:27.876Z,13.40
2019-05-22T01:40:03.809Z,13.40
2019-05-22T01:42:34.976Z,13.40
2019-05-22T01:45:07.029Z,13.50
2019-05-22T01:47:42.872Z,13.50
2019-05-22T01:50:15.886Z,13.50
2019-05-22T01:52:48.483Z,13.50
2019-05-22T01:55:18.960Z,13.40
2019-05-22T01:57:49.667Z,13.40
2019-05-22T02:00:20.127Z,13.40
2019-05-22T02:02:51.064Z,13.40
2019-05-22T02:05:21.339Z,13.30
2019-05-22T02:07:51.141Z,13.30
2019-05-22T02:10:26.009Z,13.30
2019-05-22T02:13:00.467Z,13.30
2019-05-22T02:15:30.703Z,13.30
2019-05-22T02:18:00.719Z,13.30
2019-05-22T02:20:29.311Z,13.20
2019-05-22T02:22:58.267Z,13.20
2019-05-22T02:25:28.952Z,13.20
2019-05-22T02:27:59.263Z,13.20
2019-05-22T02:30:30.448Z,13.20
2019-05-22T02:32:59.616Z,13.20
2019-05-22T02:35:29.529Z,13.20
2019-05-22T02:37:58.873Z,13.20
2019-05-22T02:40:32.632Z,13.20
2019-05-22T02:43:02.282Z,13.20
2019-05-22T02:45:31.441Z,13.20
2019-05-22T02:48:02.252Z,13.20
2019-05-22T02:50:32.966Z,13.20
2019-05-22T02:53:03.604Z,13.20
2019-05-22T02:55:33.286Z,13.20
2019-05-22T02:58:04.636Z,13.20
2019-05-22T03:00:40.037Z,13.20
2019-05-22T03:03:08.677Z,13.20
2019-05-22T03:05:37.833Z,13.20
2019-05-22T03:08:06.944Z,13.20
2019-05-22T03:10:36.288Z,13.20
2019-05-22T03:13:06.383Z,13.20
2019-05-22T03:15:35.533Z,13.10
2019-05-22T03:18:08.073Z,13.10
2019-05-22T03:20:40.352Z,13.10
2019-05-22T03:23:36.538Z,13.10
2019-05-22T03:26:07.107Z,13.10
2019-05-22T03:28:36.712Z,13.00
2019-05-22T03:31:06.849Z,13.10
2019-05-22T03:33:36.756Z,13.10
2019-05-22T03:36:11.329Z,13.00
2019-05-22T03:38:41.879Z,13.00
2019-05-22T03:41:12.815Z,13.00
2019-05-22T03:43:44.041Z,13.00
2019-05-22T03:46:31.213Z,13.00
2019-05-22T03:49:00.959Z,13.00
2019-05-22T03:51:30.610Z,13.10
2019-05-22T03:54:01.094Z,13.00
2019-05-22T03:56:31.298Z,13.10
2019-05-22T03:59:01.306Z,13.10
2019-05-22T04:01:32.824Z,13.10
2019-05-22T04:04:03.033Z,13.10
2019-05-22T04:06:33.031Z,13.00
2019-05-22T04:09:06.307Z,13.10
2019-05-22T04:11:38.664Z,13.00
2019-05-22T04:14:07.563Z,13.10
2019-05-22T04:16:37.000Z,13.10
2019-05-22T04:19:06.635Z,13.10
2019-05-22T04:21:35.546Z,13.10
2019-05-22T04:24:04.253Z,13.10
2019-05-22T04:26:33.299Z,13.10
2019-05-22T04:29:02.212Z,13.10
2019-05-22T04:31:42.823Z,13.10
2019-05-22T04:34:11.459Z,13.10
2019-05-22T04:36:41.289Z,13.10
2019-05-22T04:39:13.006Z,13.10
2019-05-22T04:41:41.812Z,13.10
2019-05-22T04:44:11.523Z,13.10
2019-05-22T04:46:41.543Z,13.10
2019-05-22T04:49:11.109Z,13.10
2019-05-22T04:51:39.675Z,13.20
2019-05-22T04:54:08.648Z,13.20
2019-05-22T04:56:37.470Z,13.20
2019-05-22T04:59:07.136Z,13.20
2019-05-22T05:01:36.312Z,13.30
2019-05-22T05:04:06.838Z,13.30
2019-05-22T05:06:36.354Z,13.30
2019-05-22T05:09:08.481Z,13.30
2019-05-22T05:11:38.759Z,13.40
2019-05-22T05:14:07.667Z,13.50
2019-05-22T05:16:37.137Z,13.40
2019-05-22T05:19:06.438Z,13.40
2019-05-22T05:21:35.230Z,13.50
2019-05-22T05:24:04.202Z,13.40
2019-05-22T05:26:35.040Z,13.30
2019-05-22T05:29:06.017Z,13.30
2019-05-22T05:31:35.492Z,13.30
2019-05-22T05:34:12.980Z,13.30
2019-05-22T05:36:42.904Z,13.30
2019-05-22T05:39:15.186Z,13.20
2019-05-22T05:41:43.915Z,13.10
2019-05-22T05:44:12.855Z,13.10
2019-05-22T05:46:42.028Z,13.20
2019-05-22T05:49:11.351Z,13.20
2019-05-22T05:51:42.961Z,13.30
2019-05-22T05:54:12.774Z,13.40
2019-05-22T05:56:43.471Z,13.40
2019-05-22T05:59:14.076Z,13.40
2019-05-22T06:01:47.556Z,13.50
2019-05-22T06:04:32.195Z,13.50
2019-05-22T06:07:13.640Z,13.70
2019-05-22T06:09:42.952Z,13.70
2019-05-22T06:12:13.028Z,13.70
2019-05-22T06:14:42.129Z,13.80
2019-05-22T06:17:23.923Z,13.80
2019-05-22T06:19:55.592Z,13.80
2019-05-22T06:22:24.224Z,13.80
2019-05-22T06:24:59.783Z,13.80
2019-05-22T06:27:30.632Z,13.90
2019-05-22T06:30:06.638Z,13.90
2019-05-22T06:33:08.807Z,13.80
2019-05-22T06:35:38.996Z,13.90
2019-05-22T06:38:14.335Z,14.10
2019-05-22T06:40:43.503Z,14.20
2019-05-22T06:43:22.048Z,14.20
2019-05-22T06:45:51.139Z,14.30
2019-05-22T06:48:19.799Z,14.30
2019-05-22T06:51:00.416Z,14.40
2019-05-22T06:53:19.570Z,14.50
2019-05-22T06:55:49.091Z,14.50
2019-05-22T06:58:19.725Z,14.60
2019-05-22T07:00:48.959Z,14.70
2019-05-22T07:03:19.331Z,14.70
2019-05-22T07:05:48.972Z,14.70
2019-05-22T07:08:17.609Z,14.80
2019-05-22T07:10:46.900Z,14.90
2019-05-22T07:13:17.536Z,14.90
2019-05-22T07:15:50.440Z,15.10
2019-05-22T07:18:20.441Z,15.20
2019-05-22T07:20:50.320Z,15.20
2019-05-22T07:23:21.853Z,15.20
2019-05-22T07:25:51.647Z,15.10
2019-05-22T07:28:22.832Z,14.90
2019-05-22T07:30:52.511Z,14.90
2019-05-22T07:33:23.636Z,15.00
2019-05-22T07:36:08.359Z,15.00
2019-05-22T07:38:23.411Z,15.00
2019-05-22T07:40:53.353Z,15.00
2019-05-22T07:43:22.815Z,14.90
2019-05-22T07:45:52.831Z,14.80
2019-05-22T07:48:23.611Z,14.80
2019-05-22T07:50:54.251Z,14.90
2019-05-22T07:53:25.305Z,14.90
2019-05-22T07:55:54.963Z,14.90
2019-05-22T07:58:24.137Z,14.80
2019-05-22T08:00:55.040Z,14.80
2019-05-22T08:03:25.119Z,14.60
2019-05-22T08:05:56.463Z,14.60
2019-05-22T08:08:26.519Z,14.50
2019-05-22T08:10:56.816Z,14.50
2019-05-22T08:13:26.711Z,14.30
2019-05-22T08:15:56.114Z,14.20
2019-05-22T08:18:27.164Z,14.30
2019-05-22T08:20:56.599Z,14.40
2019-05-22T08:23:26.899Z,14.40
2019-05-22T08:25:59.125Z,14.50
2019-05-22T08:28:30.411Z,14.70
2019-05-22T08:31:00.868Z,14.70
2019-05-22T08:33:31.744Z,14.40
2019-05-22T08:36:01.119Z,14.40
2019-05-22T08:38:31.202Z,14.30
2019-05-22T08:41:01.530Z,14.30
2019-05-22T08:43:31.240Z,14.40
2019-05-22T08:46:00.871Z,14.50
2019-05-22T08:48:31.570Z,14.70
2019-05-22T08:51:01.255Z,14.80
2019-05-22T08:53:44.493Z,14.80
2019-05-22T08:56:01.406Z,14.60
2019-05-22T08:58:31.181Z,14.60
2019-05-22T09:00:59.913Z,14.70
2019-05-22T09:03:29.119Z,14.80
2019-05-22T09:05:57.857Z,14.80
2019-05-22T09:08:26.440Z,14.80
2019-05-22T09:10:55.479Z,14.90
2019-05-22T09:13:24.113Z,14.90
2019-05-22T09:15:53.717Z,14.90
2019-05-22T09:18:22.696Z,14.90
2019-05-22T09:20:52.231Z,14.90
2019-05-22T09:23:22.472Z,14.80
2019-05-22T09:25:51.307Z,14.80
2019-05-22T09:28:20.442Z,14.90
2019-05-22T09:30:49.568Z,15.00
2019-05-22T09:33:18.552Z,15.00
2019-05-22T09:35:48.202Z,15.20
2019-05-22T09:38:17.577Z,15.40
2019-05-22T09:40:47.171Z,15.40
2019-05-22T09:43:16.452Z,15.40
2019-05-22T09:45:45.160Z,15.40
2019-05-22T09:48:14.204Z,15.50
2019-05-22T09:50:43.155Z,15.60
2019-05-22T09:53:12.196Z,15.70
2019-05-22T09:55:40.831Z,15.90
2019-05-22T09:58:09.955Z,16.10
2019-05-22T10:00:38.896Z,16.60
2019-05-22T10:03:07.608Z,16.90
2019-05-22T10:05:36.870Z,17.30
2019-05-22T10:08:06.708Z,17.80
2019-05-22T10:10:35.917Z,17.80
2019-05-22T10:13:05.724Z,17.60
2019-05-22T10:15:34.727Z,17.50
2019-05-22T10:18:04.737Z,17.70
2019-05-22T10:20:34.046Z,17.60
2019-05-22T10:23:14.726Z,17.60
2019-05-22T10:25:35.416Z,17.60
2019-05-22T10:28:06.767Z,17.60
2019-05-22T10:30:36.237Z,17.80
2019-05-22T10:33:04.952Z,18.10
2019-05-22T10:35:34.555Z,19.60
2019-05-22T10:38:03.737Z,22.10
2019-05-22T10:40:32.848Z,24.00
2019-05-22T10:43:02.122Z,24.70
2019-05-22T10:45:30.897Z,23.80
2019-05-22T10:47:59.788Z,23.10
2019-05-22T10:50:29.260Z,22.20
2019-05-22T10:52:58.739Z,21.30
2019-05-22T10:55:28.359Z,20.80
2019-05-22T10:57:57.320Z,20.70
2019-05-22T11:00:27.966Z,21.00
2019-05-22T11:02:57.341Z,21.80
2019-05-22T11:05:26.339Z,22.30
2019-05-22T11:07:55.084Z,21.90
2019-05-22T11:10:25.187Z,20.70
2019-05-22T11:12:54.385Z,20.20
2019-05-22T11:15:24.044Z,21.00
2019-05-22T11:17:53.762Z,22.30
2019-05-22T11:20:24.013Z,23.10
2019-05-22T11:22:53.235Z,23.70
2019-05-22T11:25:22.725Z,23.70
2019-05-22T11:27:53.714Z,23.40
2019-05-22T11:30:23.883Z,23.30
2019-05-22T11:32:53.826Z,24.00
2019-05-22T11:35:25.183Z,25.20
2019-05-22T11:37:54.033Z,25.50
2019-05-22T11:40:22.900Z,25.00
2019-05-22T11:42:53.612Z,23.70
2019-05-22T11:45:23.089Z,22.00
2019-05-22T11:47:53.606Z,21.20
2019-05-22T11:50:23.976Z,21.00
2019-05-22T11:52:53.380Z,20.90
2019-05-22T11:55:22.255Z,20.80
2019-05-22T11:57:51.803Z,21.10
2019-05-22T12:00:22.236Z,21.10
2019-05-22T12:02:51.909Z,21.00
2019-05-22T12:05:21.517Z,20.80
2019-05-22T12:07:51.100Z,20.70
2019-05-22T12:10:22.771Z,20.60
2019-05-22T12:12:53.611Z,20.50
2019-05-22T12:15:25.344Z,20.50
2019-05-22T12:17:55.066Z,20.40
2019-05-22T12:20:26.434Z,20.30
2019-05-22T12:22:56.365Z,20.30
2019-05-22T12:25:26.860Z,20.10
2019-05-22T12:27:56.900Z,20.20
2019-05-22T12:30:26.408Z,20.00
2019-05-22T12:32:56.543Z,19.70
2019-05-22T12:35:26.686Z,19.70
2019-05-22T12:37:56.092Z,19.60
2019-05-22T12:40:25.096Z,19.30
2019-05-22T12:42:54.201Z,19.20
2019-05-22T12:45:29.128Z,19.10
2019-05-22T12:47:59.108Z,18.90
2019-05-22T12:50:31.564Z,18.80
2019-05-22T12:53:03.432Z,19.00
2019-05-22T12:55:33.608Z,19.30
2019-05-22T12:58:03.155Z,19.60
2019-05-22T13:00:32.843Z,19.70
2019-05-22T13:03:03.705Z,19.80
2019-05-22T13:05:35.276Z,19.60
2019-05-22T13:08:04.471Z,19.50
2019-05-22T13:10:33.424Z,19.80
2019-05-22T13:13:02.313Z,19.80
2019-05-22T13:15:33.616Z,19.80
2019-05-22T13:18:02.958Z,19.60
2019-05-22T13:20:42.615Z,19.70
2019-05-22T13:23:07.804Z,19.70
2019-05-22T13:25:39.842Z,19.80
2019-05-22T13:28:11.547Z,19.50
2019-05-22T13:30:42.940Z,19.30
2019-05-22T13:33:16.251Z,19.30
2019-05-22T13:35:45.660Z,19.20
2019-05-22T13:38:14.871Z,19.10
2019-05-22T13:40:45.722Z,19.10
2019-05-22T13:43:14.880Z,19.20
2019-05-22T13:45:44.056Z,19.20
2019-05-22T13:48:13.385Z,19.10
2019-05-22T13:50:42.520Z,19.10
2019-05-22T13:53:13.308Z,19.20
2019-05-22T13:55:41.973Z,19.10
2019-05-22T13:58:12.345Z,18.90
2019-05-22T14:00:42.134Z,18.80
2019-05-22T14:03:11.344Z,18.90
2019-05-22T14:05:41.964Z,18.90
2019-05-22T14:08:11.736Z,19.00
2019-05-22T14:10:41.366Z,19.00
2019-05-22T14:13:10.308Z,19.10
2019-05-22T14:15:50.489Z,19.00
2019-05-22T14:18:09.683Z,19.00
2019-05-22T14:20:38.529Z,19.00
2019-05-22T14:23:07.263Z,19.10
2019-05-22T14:25:36.576Z,19.20
2019-05-22T14:28:06.749Z,19.20
2019-05-22T14:30:37.243Z,19.30
2019-05-22T14:33:06.665Z,19.40
2019-05-22T14:35:47.659Z,19.50
2019-05-22T14:38:09.082Z,19.30
2019-05-22T14:40:38.620Z,19.30
2019-05-22T14:43:08.768Z,19.40
2019-05-22T14:45:38.208Z,19.40
2019-05-22T14:48:07.424Z,19.40
2019-05-22T14:50:36.626Z,19.30
2019-05-22T14:53:05.358Z,19.20
2019-05-22T14:55:34.748Z,19.20
2019-05-22T14:58:05.610Z,19.10
2019-05-22T15:00:35.368Z,19.10
2019-05-22T15:03:05.704Z,19.20
2019-05-22T15:05:34.740Z,19.20
2019-05-22T15:08:04.644Z,19.20
2019-05-22T15:10:33.406Z,19.20
2019-05-22T15:13:02.215Z,19.20
2019-05-22T15:15:31.715Z,18.90
2019-05-22T15:18:00.583Z,18.80
2019-05-22T15:20:37.895Z,18.80
2019-05-22T15:23:07.500Z,18.90
2019-05-22T15:25:36.589Z,18.80
2019-05-22T15:28:06.391Z,18.70
2019-05-22T15:30:35.561Z,18.80
2019-05-22T15:33:05.159Z,19.10
2019-05-22T15:35:33.939Z,19.40
2019-05-22T15:38:03.140Z,19.30
2019-05-22T15:40:32.152Z,19.20
2019-05-22T15:43:01.451Z,19.30
2019-05-22T15:45:33.311Z,19.50
2019-05-22T15:48:10.132Z,19.50
2019-05-22T15:50:39.012Z,19.60
2019-05-22T15:53:14.423Z,19.60
2019-05-22T15:55:42.748Z,19.70
2019-05-22T15:58:14.117Z,19.60
2019-05-22T16:00:44.343Z,19.50
2019-05-22T16:03:20.575Z,19.40
2019-05-22T16:05:51.559Z,19.30
2019-05-22T16:08:20.360Z,19.30
2019-05-22T16:10:50.908Z,19.30
2019-05-22T16:13:22.655Z,19.40
2019-05-22T16:15:53.492Z,19.40
2019-05-22T16:18:28.494Z,19.40
2019-05-22T16:21:01.299Z,19.40
2019-05-22T16:23:31.732Z,19.40
2019-05-22T16:26:01.849Z,19.40
2019-05-22T16:28:36.047Z,19.50
2019-05-22T16:31:07.480Z,19.40
2019-05-22T16:33:37.155Z,19.30
2019-05-22T16:36:06.956Z,19.10
2019-05-22T16:38:37.646Z,19.10
2019-05-22T16:41:07.655Z,19.00
2019-05-22T16:43:48.787Z,18.90
2019-05-22T16:46:10.359Z,18.80
2019-05-22T16:48:41.527Z,18.80
2019-05-22T16:51:11.794Z,18.70
2019-05-22T16:53:41.802Z,18.60
2019-05-22T16:56:11.095Z,18.30
2019-05-22T16:58:40.340Z,18.30
2019-05-22T17:01:10.018Z,18.20
2019-05-22T17:03:40.104Z,18.30
2019-05-22T17:06:09.173Z,18.30
2019-05-22T17:08:38.278Z,18.30
2019-05-22T17:11:07.311Z,18.30
2019-05-22T17:13:37.024Z,18.20
2019-05-22T17:16:07.022Z,18.20
2019-05-22T17:18:47.257Z,18.10
2019-05-22T17:21:06.867Z,18.10
2019-05-22T17:23:35.815Z,18.10
2019-05-22T17:26:05.139Z,18.00
2019-05-22T17:28:34.311Z,18.00
2019-05-22T17:31:04.216Z,17.90
2019-05-22T17:33:33.993Z,17.90
2019-05-22T17:36:05.687Z,17.90
2019-05-22T17:38:34.616Z,17.80
2019-05-22T17:41:05.079Z,17.80
2019-05-22T17:43:34.187Z,17.70
2019-05-22T17:46:04.459Z,17.60
2019-05-22T17:48:34.598Z,17.50
2019-05-22T17:51:04.484Z,17.50
2019-05-22T17:53:34.188Z,17.40
2019-05-22T17:56:03.562Z,17.40
2019-05-22T17:58:32.631Z,17.30
2019-05-22T18:01:02.316Z,17.20
2019-05-22T18:03:31.122Z,17.20
2019-05-22T18:06:00.708Z,17.10
2019-05-22T18:08:29.633Z,17.00
2019-05-22T18:10:59.406Z,17.00
2019-05-22T18:13:28.896Z,16.90
2019-05-22T18:15:58.570Z,16.80
2019-05-22T18:18:27.215Z,16.80
2019-05-22T18:20:56.611Z,16.80
2019-05-22T18:23:25.419Z,16.70
2019-05-22T18:25:54.140Z,16.50
2019-05-22T18:28:23.015Z,16.40
2019-05-22T18:30:52.217Z,16.30
2019-05-22T18:33:21.016Z,16.30
2019-05-22T18:35:50.189Z,16.10
2019-05-22T18:38:18.923Z,16.10
2019-05-22T18:40:47.735Z,16.00
2019-05-22T18:43:18.792Z,15.80
2019-05-22T18:45:46.811Z,15.70
2019-05-22T18:48:15.847Z,15.60
2019-05-22T18:50:45.296Z,15.40
2019-05-22T18:53:14.427Z,15.30
2019-05-22T18:55:43.347Z,15.10
2019-05-22T18:58:12.476Z,15.00
2019-05-22T19:00:41.243Z,14.90
2019-05-22T19:03:10.560Z,14.80
2019-05-22T19:05:39.964Z,14.70
2019-05-22T19:08:08.599Z,14.50
2019-05-22T19:10:37.836Z,14.40
2019-05-22T19:13:07.012Z,14.30
2019-05-22T19:15:35.831Z,14.20
2019-05-22T19:18:04.754Z,14.10
2019-05-22T19:20:33.895Z,13.90
2019-05-22T19:23:02.626Z,13.80
2019-05-22T19:25:31.282Z,13.70
2019-05-22T19:28:00.048Z,13.60
2019-05-22T19:30:28.978Z,13.50
2019-05-22T19:32:57.677Z,13.50
2019-05-22T19:35:26.723Z,13.50
2019-05-22T19:37:56.689Z,13.50
2019-05-22T19:40:25.624Z,13.60
2019-05-22T19:42:54.927Z,13.70
2019-05-22T19:45:23.934Z,13.70
2019-05-22T19:47:56.012Z,13.60
2019-05-22T19:50:25.487Z,13.40
2019-05-22T19:52:55.729Z,13.30
2019-05-22T19:55:26.856Z,13.10
2019-05-22T19:57:56.276Z,13.00
2019-05-22T20:00:25.653Z,12.90
2019-05-22T20:02:57.179Z,12.70
2019-05-22T20:05:26.563Z,12.70
2019-05-22T20:07:55.759Z,12.60
2019-05-22T20:10:25.424Z,12.60
2019-05-22T20:12:55.741Z,12.50
2019-05-22T20:15:25.340Z,12.50
2019-05-22T20:17:54.211Z,12.50
2019-05-22T20:20:24.336Z,12.40
2019-05-22T20:22:53.559Z,12.40
2019-05-22T20:25:23.372Z,12.30
2019-05-22T20:27:52.171Z,12.20
2019-05-22T20:30:22.842Z,12.20
2019-05-22T20:32:51.955Z,12.10
2019-05-22T20:35:21.385Z,12.00
2019-05-22T20:37:49.980Z,11.90
2019-05-22T20:40:20.405Z,11.80
2019-05-22T20:42:49.331Z,11.60
2019-05-22T20:45:21.166Z,11.50
2019-05-22T20:47:54.735Z,11.40
2019-05-22T20:50:25.343Z,11.40
2019-05-22T20:52:55.191Z,11.30
2019-05-22T20:55:24.436Z,11.20
2019-05-22T20:57:53.335Z,11.20
2019-05-22T21:00:23.275Z,11.20
2019-05-22T21:02:54.886Z,11.10
2019-05-22T21:05:25.790Z,11.10
2019-05-22T21:07:58.759Z,10.90
2019-05-22T21:10:28.313Z,10.90
2019-05-22T21:12:57.613Z,10.80
2019-05-22T21:15:28.735Z,10.70
2019-05-22T21:17:59.856Z,10.60
2019-05-22T21:20:30.155Z,10.60
2019-05-22T21:22:59.111Z,10.60
2019-05-22T21:25:28.875Z,10.50
2019-05-22T21:27:57.511Z,10.50
2019-05-22T21:30:27.019Z,10.50
2019-05-22T21:32:55.956Z,10.50
2019-05-22T21:35:25.360Z,10.50
2019-05-22T21:37:55.661Z,10.40
2019-05-22T21:40:25.263Z,10.30
2019-05-22T21:42:55.809Z,10.20
2019-05-22T21:45:25.615Z,10.10
2019-05-22T21:47:54.938Z,10.10
2019-05-22T21:50:24.434Z,10.10
2019-05-22T21:52:53.542Z,10.00
2019-05-22T21:55:24.143Z,10.00
2019-05-22T21:57:53.728Z,10.00
2019-05-22T22:00:42.107Z,10.00
2019-05-22T22:03:13.088Z,10.00
2019-05-22T22:05:42.292Z,10.00
2019-05-22T22:08:11.855Z,9.90
2019-05-22T22:10:41.742Z,9.90
2019-05-22T22:13:10.767Z,9.90
2019-05-22T22:15:46.059Z,9.80
2019-05-22T22:18:15.670Z,9.80
2019-05-22T22:20:45.238Z,9.80
2019-05-22T22:23:15.631Z,9.70
2019-05-22T22:25:45.905Z,9.70
2019-05-22T22:28:16.394Z,9.60
2019-05-22T22:30:53.481Z,9.60
2019-05-22T22:33:26.823Z,9.60
2019-05-22T22:35:55.775Z,9.50
2019-05-22T22:38:29.152Z,9.50
2019-05-22T22:40:58.154Z,9.40
2019-05-22T22:43:30.557Z,9.40
2019-05-22T22:46:05.883Z,9.40
2019-05-22T22:48:36.963Z,9.30
2019-05-22T22:51:09.924Z,9.30
2019-05-22T22:53:38.824Z,9.30
2019-05-22T22:56:09.255Z,9.20
2019-05-22T22:58:39.030Z,9.20
2019-05-22T23:01:10.740Z,9.10
2019-05-22T23:03:41.924Z,9.10
2019-05-22T23:06:12.587Z,9.10
2019-05-22T23:08:41.971Z,9.10
2019-05-22T23:11:10.978Z,9.00
2019-05-22T23:13:40.812Z,9.00
2019-05-22T23:16:11.552Z,9.00
2019-05-22T23:18:46.994Z,8.90
2019-05-22T23:21:16.109Z,8.90
2019-05-22T23:26:34.343Z,8.80
2019-05-22T23:29:03.243Z,8.80
2019-05-22T23:31:34.111Z,8.80
2019-05-22T23:34:05.533Z,8.80
2019-05-22T23:36:36.039Z,8.80
2019-05-22T23:39:08.584Z,8.70
2019-05-22T23:41:39.314Z,8.70
2019-05-22T23:44:11.149Z,8.70
2019-05-22T23:46:40.989Z,8.70
2019-05-22T23:49:10.160Z,8.70
2019-05-22T23:51:39.284Z,8.70
2019-05-22T23:54:30.717Z,8.60
2019-05-22T23:57:01.024Z,8.60
2019-05-22T23:59:32.700Z,8.60
